sensor_id;sensor_type;location;lat;lon;timestamp;pressure;altitude;pressure_sealevel;temperature;humidity
48926;BME280;39838;59.938;30.642;2023-04-26T00:02:15;99741.06;;;13.45;37.81
48926;BME280;39838;59.938;30.642;2023-04-26T00:04:43;99740.19;;;13.44;38.01
48926;BME280;39838;59.938;30.642;2023-04-26T00:07:13;99735.97;;;13.38;38.28
48926;BME280;39838;59.938;30.642;2023-04-26T00:09:40;99738.63;;;13.37;38.05
48926;BME280;39838;59.938;30.642;2023-04-26T00:12:09;99737.81;;;13.35;38.36
48926;BME280;39838;59.938;30.642;2023-04-26T00:14:36;99731.75;;;13.33;38.89
48926;BME280;39838;59.938;30.642;2023-04-26T00:17:04;99732.66;;;13.32;38.66
48926;BME280;39838;59.938;30.642;2023-04-26T00:19:31;99732.66;;;13.32;38.64
48926;BME280;39838;59.938;30.642;2023-04-26T00:21:58;99731.00;;;13.29;38.94
48926;BME280;39838;59.938;30.642;2023-04-26T00:24:27;99730.19;;;13.26;38.89
48926;BME280;39838;59.938;30.642;2023-04-26T00:26:54;99729.41;;;13.22;38.43
48926;BME280;39838;59.938;30.642;2023-04-26T00:29:21;99735.53;;;13.21;38.72
48926;BME280;39838;59.938;30.642;2023-04-26T00:31:49;99726.13;;;13.12;38.82
48926;BME280;39838;59.938;30.642;2023-04-26T00:34:16;99743.41;;;13.17;38.82
48926;BME280;39838;59.938;30.642;2023-04-26T00:36:43;99736.53;;;13.12;38.94
48926;BME280;39838;59.938;30.642;2023-04-26T00:39:10;99737.44;;;13.11;38.80
48926;BME280;39838;59.938;30.642;2023-04-26T00:41:39;99731.41;;;13.09;38.54
48926;BME280;39838;59.938;30.642;2023-04-26T00:44:06;99733.16;;;13.09;38.95
48926;BME280;39838;59.938;30.642;2023-04-26T00:46:33;99728.00;;;13.07;39.02
48926;BME280;39838;59.938;30.642;2023-04-26T00:49:01;99723.63;;;13.06;39.15
48926;BME280;39838;59.938;30.642;2023-04-26T00:51:28;99723.72;;;13.03;39.16
48926;BME280;39838;59.938;30.642;2023-04-26T00:53:56;99723.63;;;13.06;39.16
48926;BME280;39838;59.938;30.642;2023-04-26T00:56:24;99726.28;;;13.05;38.93
48926;BME280;39838;59.938;30.642;2023-04-26T00:58:52;99722.81;;;13.04;39.11
48926;BME280;39838;59.938;30.642;2023-04-26T01:01:20;99725.38;;;13.06;39.12
48926;BME280;39838;59.938;30.642;2023-04-26T01:03:47;99725.47;;;13.03;38.82
48926;BME280;39838;59.938;30.642;2023-04-26T01:06:14;99728.97;;;13.02;38.76
48926;BME280;39838;59.938;30.642;2023-04-26T01:08:42;99729.84;;;13.02;39.18
48926;BME280;39838;59.938;30.642;2023-04-26T01:11:09;99725.47;;;13.03;39.20
48926;BME280;39838;59.938;30.642;2023-04-26T01:13:37;99707.41;;;12.95;39.15
48926;BME280;39838;59.938;30.642;2023-04-26T01:16:09;99724.75;;;12.96;39.42
48926;BME280;39838;59.938;30.642;2023-04-26T01:18:36;99716.13;;;12.93;39.29
48926;BME280;39838;59.938;30.642;2023-04-26T01:21:03;99715.34;;;12.89;39.42
48926;BME280;39838;59.938;30.642;2023-04-26T01:23:32;99710.19;;;12.88;39.44
48926;BME280;39838;59.938;30.642;2023-04-26T01:25:59;99710.19;;;12.86;39.52
48926;BME280;39838;59.938;30.642;2023-04-26T01:28:26;99717.91;;;12.91;39.57
48926;BME280;39838;59.938;30.642;2023-04-26T01:30:53;99707.50;;;12.91;39.27
48926;BME280;39838;59.938;30.642;2023-04-26T01:33:21;99710.94;;;12.91;39.35
48926;BME280;39838;59.938;30.642;2023-04-26T01:35:48;99706.69;;;12.89;39.30
48926;BME280;39838;59.938;30.642;2023-04-26T01:38:15;99700.59;;;12.88;39.63
48926;BME280;39838;59.938;30.642;2023-04-26T01:40:46;99699.75;;;12.86;40.03
48926;BME280;39838;59.938;30.642;2023-04-26T01:43:13;99701.50;;;12.85;39.67
48926;BME280;39838;59.938;30.642;2023-04-26T01:45:45;99696.41;;;12.81;39.84
48926;BME280;39838;59.938;30.642;2023-04-26T01:48:13;99698.22;;;12.77;39.77
48926;BME280;39838;59.938;30.642;2023-04-26T01:50:40;99694.00;;;12.72;39.64
48926;BME280;39838;59.938;30.642;2023-04-26T01:53:07;99688.03;;;12.67;39.66
48926;BME280;39838;59.938;30.642;2023-04-26T01:55:35;99688.13;;;12.62;39.91
48926;BME280;39838;59.938;30.642;2023-04-26T01:58:03;99682.19;;;12.55;39.83
48926;BME280;39838;59.938;30.642;2023-04-26T02:00:31;99690.06;;;12.52;39.67
48926;BME280;39838;59.938;30.642;2023-04-26T02:02:58;99689.41;;;12.43;40.24
48926;BME280;39838;59.938;30.642;2023-04-26T02:05:25;99691.31;;;12.35;40.15
48926;BME280;39838;59.938;30.642;2023-04-26T02:07:52;99688.00;;;12.25;40.64
48926;BME280;39838;59.938;30.642;2023-04-26T02:10:19;99693.34;;;12.19;40.79
48926;BME280;39838;59.938;30.642;2023-04-26T02:12:47;99689.13;;;12.13;40.97
48926;BME280;39838;59.938;30.642;2023-04-26T02:15:16;99684.94;;;12.05;41.09
48926;BME280;39838;59.938;30.642;2023-04-26T02:17:43;99686.78;;;11.99;41.24
48926;BME280;39838;59.938;30.642;2023-04-26T02:20:11;99679.91;;;11.95;41.17
48926;BME280;39838;59.938;30.642;2023-04-26T02:22:38;99684.28;;;11.92;41.22
48926;BME280;39838;59.938;30.642;2023-04-26T02:25:06;99675.66;;;11.90;41.27
48926;BME280;39838;59.938;30.642;2023-04-26T02:27:34;99677.50;;;11.86;41.14
48926;BME280;39838;59.938;30.642;2023-04-26T02:30:01;99681.88;;;11.83;41.50
48926;BME280;39838;59.938;30.642;2023-04-26T02:32:33;99679.31;;;11.80;41.53
48926;BME280;39838;59.938;30.642;2023-04-26T02:35:00;99683.66;;;11.79;41.48
48926;BME280;39838;59.938;30.642;2023-04-26T02:37:31;99685.41;;;11.79;41.69
48926;BME280;39838;59.938;30.642;2023-04-26T02:39:58;99679.38;;;11.75;41.71
48926;BME280;39838;59.938;30.642;2023-04-26T02:42:25;99677.59;;;11.77;41.57
48926;BME280;39838;59.938;30.642;2023-04-26T02:44:53;99677.69;;;11.72;41.75
48926;BME280;39838;59.938;30.642;2023-04-26T02:47:20;99674.34;;;11.66;42.05
48926;BME280;39838;59.938;30.642;2023-04-26T02:49:48;99670.09;;;11.60;42.07
48926;BME280;39838;59.938;30.642;2023-04-26T02:52:17;99671.91;;;11.55;42.38
48926;BME280;39838;59.938;30.642;2023-04-26T02:54:44;99671.16;;;11.48;42.40
48926;BME280;39838;59.938;30.642;2023-04-26T02:57:11;99679.06;;;11.42;42.48
48926;BME280;39838;59.938;30.642;2023-04-26T02:59:38;99679.97;;;11.41;42.83
48926;BME280;39838;59.938;30.642;2023-04-26T03:02:05;99673.94;;;11.39;42.77
48926;BME280;39838;59.938;30.642;2023-04-26T03:04:32;99670.59;;;11.31;42.93
48926;BME280;39838;59.938;30.642;2023-04-26T03:07:02;99675.75;;;11.34;42.93
48926;BME280;39838;59.938;30.642;2023-04-26T03:09:29;99666.25;;;11.32;43.27
48926;BME280;39838;59.938;30.642;2023-04-26T03:11:59;99668.00;;;11.30;43.26
48926;BME280;39838;59.938;30.642;2023-04-26T03:14:26;99665.41;;;11.30;43.40
48926;BME280;39838;59.938;30.642;2023-04-26T03:16:53;99666.25;;;11.30;43.12
48926;BME280;39838;59.938;30.642;2023-04-26T03:19:20;99663.56;;;11.36;43.13
48926;BME280;39838;59.938;30.642;2023-04-26T03:21:47;99666.97;;;11.40;42.82
48926;BME280;39838;59.938;30.642;2023-04-26T03:24:16;99660.94;;;11.39;42.59
48926;BME280;39838;59.938;30.642;2023-04-26T03:26:43;99663.31;;;11.50;42.74
48926;BME280;39838;59.938;30.642;2023-04-26T03:29:10;99654.56;;;11.56;42.53
48926;BME280;39838;59.938;30.642;2023-04-26T03:31:38;99662.31;;;11.60;42.66
48926;BME280;39838;59.938;30.642;2023-04-26T03:34:05;99659.56;;;11.68;42.79
48926;BME280;39838;59.938;30.642;2023-04-26T03:36:32;99662.09;;;11.72;42.64
48926;BME280;39838;59.938;30.642;2023-04-26T03:39:00;99657.66;;;11.76;42.52
48926;BME280;39838;59.938;30.642;2023-04-26T03:41:28;99662.81;;;11.82;42.48
48926;BME280;39838;59.938;30.642;2023-04-26T03:43:57;99654.91;;;11.87;42.25
48926;BME280;39838;59.938;30.642;2023-04-26T03:46:24;99653.06;;;11.93;42.63
48926;BME280;39838;59.938;30.642;2023-04-26T03:48:52;99652.84;;;12.04;42.47
48926;BME280;39838;59.938;30.642;2023-04-26T03:51:19;99648.25;;;12.17;42.05
48926;BME280;39838;59.938;30.642;2023-04-26T03:53:46;99656.63;;;12.31;42.27
48926;BME280;39838;59.938;30.642;2023-04-26T03:56:14;99649.47;;;12.42;41.69
48926;BME280;39838;59.938;30.642;2023-04-26T03:58:43;99649.25;;;12.51;41.74
48926;BME280;39838;59.938;30.642;2023-04-26T04:01:10;99652.47;;;12.64;41.65
48926;BME280;39838;59.938;30.642;2023-04-26T04:03:37;99639.22;;;12.73;41.56
48926;BME280;39838;59.938;30.642;2023-04-26T04:06:05;99643.38;;;12.82;41.38
48926;BME280;39838;59.938;30.642;2023-04-26T04:08:32;99649.25;;;12.92;41.44
48926;BME280;39838;59.938;30.642;2023-04-26T04:11:00;99639.47;;;13.01;41.44
48926;BME280;39838;59.938;30.642;2023-04-26T04:13:27;99648.81;;;13.10;41.24
48926;BME280;39838;59.938;30.642;2023-04-26T04:15:55;99643.47;;;13.16;40.87
48926;BME280;39838;59.938;30.642;2023-04-26T04:18:22;99642.41;;;13.25;41.10
48926;BME280;39838;59.938;30.642;2023-04-26T04:20:51;99644.88;;;13.31;40.91
48926;BME280;39838;59.938;30.642;2023-04-26T04:23:18;99646.34;;;13.41;40.70
48926;BME280;39838;59.938;30.642;2023-04-26T04:25:45;99645.31;;;13.48;40.63
48926;BME280;39838;59.938;30.642;2023-04-26T04:28:13;99645.88;;;13.59;40.81
48926;BME280;39838;59.938;30.642;2023-04-26T04:30:41;99643.97;;;13.66;40.76
48926;BME280;39838;59.938;30.642;2023-04-26T04:33:12;99652.50;;;13.73;40.41
48926;BME280;39838;59.938;30.642;2023-04-26T04:35:40;99655.06;;;13.74;39.86
48926;BME280;39838;59.938;30.642;2023-04-26T04:38:08;99657.59;;;13.77;40.35
48926;BME280;39838;59.938;30.642;2023-04-26T04:40:35;99651.31;;;13.84;40.08
48926;BME280;39838;59.938;30.642;2023-04-26T04:43:02;99661.56;;;13.92;40.16
48926;BME280;39838;59.938;30.642;2023-04-26T04:45:29;99649.09;;;14.02;40.13
48926;BME280;39838;59.938;30.642;2023-04-26T04:47:56;99652.47;;;14.05;39.87
48926;BME280;39838;59.938;30.642;2023-04-26T04:50:25;99657.50;;;14.13;39.73
48926;BME280;39838;59.938;30.642;2023-04-26T04:52:52;99652.88;;;14.23;39.76
48926;BME280;39838;59.938;30.642;2023-04-26T04:55:20;99654.28;;;14.34;39.17
48926;BME280;39838;59.938;30.642;2023-04-26T04:57:47;99640.13;;;14.41;39.20
48926;BME280;39838;59.938;30.642;2023-04-26T05:00:15;99650.19;;;14.57;39.33
48926;BME280;39838;59.938;30.642;2023-04-26T05:02:42;99643.88;;;14.62;39.33
48926;BME280;39838;59.938;30.642;2023-04-26T05:05:09;99649.78;;;14.69;39.22
48926;BME280;39838;59.938;30.642;2023-04-26T05:07:38;99648.03;;;14.69;39.47
48926;BME280;39838;59.938;30.642;2023-04-26T05:10:06;99644.66;;;14.66;39.25
48926;BME280;39838;59.938;30.642;2023-04-26T05:12:34;99640.41;;;14.63;39.51
48926;BME280;39838;59.938;30.642;2023-04-26T05:15:01;99652.56;;;14.64;39.28
48926;BME280;39838;59.938;30.642;2023-04-26T05:17:33;99653.41;;;14.65;39.53
48926;BME280;39838;59.938;30.642;2023-04-26T05:20:00;99658.41;;;14.72;39.76
48926;BME280;39838;59.938;30.642;2023-04-26T05:22:31;99646.91;;;14.78;39.72
48926;BME280;39838;59.938;30.642;2023-04-26T05:25:01;99650.09;;;14.88;39.89
48926;BME280;39838;59.938;30.642;2023-04-26T05:27:29;99649.03;;;14.93;39.70
48926;BME280;39838;59.938;30.642;2023-04-26T05:29:57;99649.91;;;14.94;39.54
48926;BME280;39838;59.938;30.642;2023-04-26T05:32:24;99647.41;;;14.89;39.30
48926;BME280;39838;59.938;30.642;2023-04-26T05:34:51;99652.47;;;14.95;39.50
48926;BME280;39838;59.938;30.642;2023-04-26T05:37:18;99640.94;;;15.01;39.57
48926;BME280;39838;59.938;30.642;2023-04-26T05:39:45;99648.66;;;15.06;39.59
48926;BME280;39838;59.938;30.642;2023-04-26T05:42:15;99643.91;;;15.18;39.48
48926;BME280;39838;59.938;30.642;2023-04-26T05:44:42;99645.94;;;15.35;39.67
48926;BME280;39838;59.938;30.642;2023-04-26T05:47:09;99639.34;;;15.50;39.60
48926;BME280;39838;59.938;30.642;2023-04-26T05:49:36;99638.97;;;15.62;39.47
48926;BME280;39838;59.938;30.642;2023-04-26T05:52:04;99641.03;;;15.77;39.27
48926;BME280;39838;59.938;30.642;2023-04-26T05:54:31;99641.47;;;15.90;39.19
48926;BME280;39838;59.938;30.642;2023-04-26T05:56:58;99635.81;;;16.02;39.12
48926;BME280;39838;59.938;30.642;2023-04-26T05:59:27;99635.38;;;16.15;38.98
48926;BME280;39838;59.938;30.642;2023-04-26T06:01:57;99633.25;;;16.24;38.79
48926;BME280;39838;59.938;30.642;2023-04-26T06:04:24;99638.09;;;16.35;38.65
48926;BME280;39838;59.938;30.642;2023-04-26T06:06:51;99642.06;;;16.45;38.82
48926;BME280;39838;59.938;30.642;2023-04-26T06:09:19;99636.59;;;16.51;38.66
48926;BME280;39838;59.938;30.642;2023-04-26T06:11:46;99634.31;;;16.65;38.24
48926;BME280;39838;59.938;30.642;2023-04-26T06:14:13;99633.03;;;16.77;38.12
48926;BME280;39838;59.938;30.642;2023-04-26T06:16:41;99633.56;;;16.85;37.93
48926;BME280;39838;59.938;30.642;2023-04-26T06:19:08;99630.47;;;16.98;37.80
48926;BME280;39838;59.938;30.642;2023-04-26T06:21:35;99625.66;;;17.09;37.45
48926;BME280;39838;59.938;30.642;2023-04-26T06:24:03;99626.19;;;17.17;37.47
48926;BME280;39838;59.938;30.642;2023-04-26T06:26:30;99630.78;;;17.32;37.03
48926;BME280;39838;59.938;30.642;2023-04-26T06:28:57;99629.50;;;17.42;36.82
48926;BME280;39838;59.938;30.642;2023-04-26T06:31:25;99639.53;;;17.53;36.70
48926;BME280;39838;59.938;30.642;2023-04-26T06:33:53;99630.50;;;17.60;36.35
48926;BME280;39838;59.938;30.642;2023-04-26T06:36:20;99637.19;;;17.67;36.09
48926;BME280;39838;59.938;30.642;2023-04-26T06:38:48;99628.88;;;17.78;35.78
48926;BME280;39838;59.938;30.642;2023-04-26T06:41:15;99630.31;;;17.85;35.66
48926;BME280;39838;59.938;30.642;2023-04-26T06:43:42;99603.28;;;17.83;35.56
48926;BME280;39838;59.938;30.642;2023-04-26T06:46:09;99622.69;;;17.99;35.05
48926;BME280;39838;59.938;30.642;2023-04-26T06:48:36;99611.31;;;17.99;34.58
48926;BME280;39838;59.938;30.642;2023-04-26T06:51:08;99619.09;;;18.21;34.85
48926;BME280;39838;59.938;30.642;2023-04-26T06:53:35;99619.47;;;18.32;34.22
48926;BME280;39838;59.938;30.642;2023-04-26T06:56:03;99620.03;;;18.39;34.23
48926;BME280;39838;59.938;30.642;2023-04-26T06:58:30;99617.06;;;18.46;33.85
48926;BME280;39838;59.938;30.642;2023-04-26T07:00:57;99614.78;;;18.58;34.15
48926;BME280;39838;59.938;30.642;2023-04-26T07:03:24;99614.44;;;18.65;34.33
48926;BME280;39838;59.938;30.642;2023-04-26T07:05:53;99619.69;;;18.65;34.15
48926;BME280;39838;59.938;30.642;2023-04-26T07:08:22;99619.63;;;18.67;34.01
48926;BME280;39838;59.938;30.642;2023-04-26T07:10:49;99615.94;;;18.71;34.09
48926;BME280;39838;59.938;30.642;2023-04-26T07:13:16;99614.66;;;18.79;33.55
48926;BME280;39838;59.938;30.642;2023-04-26T07:15:43;99625.66;;;18.88;33.76
48926;BME280;39838;59.938;30.642;2023-04-26T07:18:11;99627.44;;;18.87;33.34
48926;BME280;39838;59.938;30.642;2023-04-26T07:20:38;99622.81;;;18.92;33.16
48926;BME280;39838;59.938;30.642;2023-04-26T07:23:05;99630.25;;;19.01;32.97
48926;BME280;39838;59.938;30.642;2023-04-26T07:25:34;99628.19;;;19.08;32.91
48926;BME280;39838;59.938;30.642;2023-04-26T07:28:01;99626.19;;;19.13;32.85
48926;BME280;39838;59.938;30.642;2023-04-26T07:30:28;99621.94;;;19.11;32.79
48926;BME280;39838;59.938;30.642;2023-04-26T07:32:57;99628.94;;;19.10;32.92
48926;BME280;39838;59.938;30.642;2023-04-26T07:35:24;99626.81;;;19.18;32.87
48926;BME280;39838;59.938;30.642;2023-04-26T07:37:51;99627.06;;;19.31;32.85
48926;BME280;39838;59.938;30.642;2023-04-26T07:40:19;99628.31;;;19.41;32.67
48926;BME280;39838;59.938;30.642;2023-04-26T07:42:48;99624.59;;;19.45;32.48
48926;BME280;39838;59.938;30.642;2023-04-26T07:45:16;99626.00;;;19.52;32.65
48926;BME280;39838;59.938;30.642;2023-04-26T07:47:43;99625.72;;;19.58;32.56
48926;BME280;39838;59.938;30.642;2023-04-26T07:50:10;99623.94;;;19.59;32.29
48926;BME280;39838;59.938;30.642;2023-04-26T07:52:37;99621.31;;;19.59;32.60
48926;BME280;39838;59.938;30.642;2023-04-26T07:55:05;99621.97;;;19.62;32.29
48926;BME280;39838;59.938;30.642;2023-04-26T07:57:33;99619.97;;;19.68;32.35
48926;BME280;39838;59.938;30.642;2023-04-26T08:00:02;99611.84;;;19.72;32.32
48926;BME280;39838;59.938;30.642;2023-04-26T08:02:31;99620.09;;;19.82;32.05
48926;BME280;39838;59.938;30.642;2023-04-26T08:04:58;99618.75;;;19.90;32.20
48926;BME280;39838;59.938;30.642;2023-04-26T08:07:25;99620.50;;;19.92;32.17
48926;BME280;39838;59.938;30.642;2023-04-26T08:09:52;99618.34;;;19.98;31.91
48926;BME280;39838;59.938;30.642;2023-04-26T08:12:19;99617.81;;;20.09;31.90
48926;BME280;39838;59.938;30.642;2023-04-26T08:14:47;99617.03;;;20.07;31.52
48926;BME280;39838;59.938;30.642;2023-04-26T08:17:15;99612.94;;;20.01;31.43
48926;BME280;39838;59.938;30.642;2023-04-26T08:19:42;99623.25;;;20.06;31.21
48926;BME280;39838;59.938;30.642;2023-04-26T08:22:09;99599.19;;;20.12;31.20
48926;BME280;39838;59.938;30.642;2023-04-26T08:24:36;99620.41;;;20.26;31.02
48926;BME280;39838;59.938;30.642;2023-04-26T08:27:04;99625.41;;;20.31;30.72
48926;BME280;39838;59.938;30.642;2023-04-26T08:29:31;99614.00;;;20.30;30.42
48926;BME280;39838;59.938;30.642;2023-04-26T08:31:58;99616.31;;;20.21;30.15
48926;BME280;39838;59.938;30.642;2023-04-26T08:34:27;99606.84;;;20.16;30.28
48926;BME280;39838;59.938;30.642;2023-04-26T08:36:54;99606.53;;;20.23;30.60
48926;BME280;39838;59.938;30.642;2023-04-26T08:39:21;99614.28;;;20.26;30.53
48926;BME280;39838;59.938;30.642;2023-04-26T08:41:51;99615.72;;;20.31;30.42
48926;BME280;39838;59.938;30.642;2023-04-26T08:44:21;99616.19;;;20.39;30.17
48926;BME280;39838;59.938;30.642;2023-04-26T08:47:00;99587.53;;;20.32;30.29
48926;BME280;39838;59.938;30.642;2023-04-26T08:49:39;99611.56;;;20.43;30.14
48926;BME280;39838;59.938;30.642;2023-04-26T08:52:08;99616.53;;;20.49;30.08
48926;BME280;39838;59.938;30.642;2023-04-26T08:54:37;99605.66;;;20.55;30.30
48926;BME280;39838;59.938;30.642;2023-04-26T08:57:05;99601.91;;;20.59;30.28
48926;BME280;39838;59.938;30.642;2023-04-26T08:59:35;99610.59;;;20.61;30.56
48926;BME280;39838;59.938;30.642;2023-04-26T09:02:04;99606.44;;;20.73;30.22
48926;BME280;39838;59.938;30.642;2023-04-26T09:04:32;99604.88;;;20.85;30.34
48926;BME280;39838;59.938;30.642;2023-04-26T09:07:02;99607.75;;;20.96;30.14
48926;BME280;39838;59.938;30.642;2023-04-26T09:09:34;99592.22;;;21.06;29.80
48926;BME280;39838;59.938;30.642;2023-04-26T09:12:02;99600.34;;;21.03;29.58
48926;BME280;39838;59.938;30.642;2023-04-26T09:14:30;99577.28;;;20.90;29.51
48926;BME280;39838;59.938;30.642;2023-04-26T09:16:57;99588.50;;;21.10;28.81
48926;BME280;39838;59.938;30.642;2023-04-26T09:19:38;99590.69;;;21.17;28.99
48926;BME280;39838;59.938;30.642;2023-04-26T09:22:07;99586.00;;;21.22;28.26
48926;BME280;39838;59.938;30.642;2023-04-26T09:24:48;99577.66;;;21.14;27.80
48926;BME280;39838;59.938;30.642;2023-04-26T09:27:16;99582.72;;;21.03;27.73
48926;BME280;39838;59.938;30.642;2023-04-26T09:29:57;99575.22;;;20.95;28.01
48926;BME280;39838;59.938;30.642;2023-04-26T09:32:25;99573.00;;;21.04;27.70
48926;BME280;39838;59.938;30.642;2023-04-26T09:34:55;99572.06;;;21.05;27.62
48926;BME280;39838;59.938;30.642;2023-04-26T09:37:22;99575.19;;;21.11;27.57
48926;BME280;39838;59.938;30.642;2023-04-26T09:39:49;99568.03;;;21.13;27.46
48926;BME280;39838;59.938;30.642;2023-04-26T09:42:17;99572.09;;;21.19;27.77
48926;BME280;39838;59.938;30.642;2023-04-26T09:44:44;99565.44;;;21.27;27.71
48926;BME280;39838;59.938;30.642;2023-04-26T09:47:12;99567.22;;;21.43;27.49
48926;BME280;39838;59.938;30.642;2023-04-26T09:49:44;99561.00;;;21.58;27.57
48926;BME280;39838;59.938;30.642;2023-04-26T09:52:15;99566.50;;;21.69;27.63
48926;BME280;39838;59.938;30.642;2023-04-26T09:54:45;99561.78;;;21.74;27.56
48926;BME280;39838;59.938;30.642;2023-04-26T09:57:14;99544.50;;;21.83;27.09
48926;BME280;39838;59.938;30.642;2023-04-26T09:59:43;99551.50;;;21.98;27.05
48926;BME280;39838;59.938;30.642;2023-04-26T10:02:15;99541.38;;;22.05;27.07
48926;BME280;39838;59.938;30.642;2023-04-26T10:04:47;99544.22;;;22.02;26.41
48926;BME280;39838;59.938;30.642;2023-04-26T10:07:17;99532.50;;;21.92;26.50
48926;BME280;39838;59.938;30.642;2023-04-26T10:09:45;99539.50;;;21.78;26.60
48926;BME280;39838;59.938;30.642;2023-04-26T10:12:14;99537.59;;;21.66;26.35
48926;BME280;39838;59.938;30.642;2023-04-26T10:14:42;99543.34;;;21.59;26.69
48926;BME280;39838;59.938;30.642;2023-04-26T10:17:12;99529.38;;;21.57;27.07
48926;BME280;39838;59.938;30.642;2023-04-26T10:19:41;99533.16;;;21.52;26.95
48926;BME280;39838;59.938;30.642;2023-04-26T10:22:15;99547.31;;;21.51;27.00
48926;BME280;39838;59.938;30.642;2023-04-26T10:24:44;99547.13;;;21.55;26.88
48926;BME280;39838;59.938;30.642;2023-04-26T10:27:12;99540.25;;;21.66;26.73
48926;BME280;39838;59.938;30.642;2023-04-26T10:30:04;99536.94;;;21.77;26.46
48926;BME280;39838;59.938;30.642;2023-04-26T10:36:05;99539.47;;;22.07;26.45
48926;BME280;39838;59.938;30.642;2023-04-26T10:38:33;99543.00;;;22.22;26.32
48926;BME280;39838;59.938;30.642;2023-04-26T10:41:28;99548.56;;;22.31;26.32
48926;BME280;39838;59.938;30.642;2023-04-26T10:43:56;99537.69;;;22.36;26.63
48926;BME280;39838;59.938;30.642;2023-04-26T10:46:38;99517.19;;;22.25;26.39
48926;BME280;39838;59.938;30.642;2023-04-26T10:49:13;99540.78;;;22.43;26.33
48926;BME280;39838;59.938;30.642;2023-04-26T10:52:09;99538.91;;;22.45;26.03
48926;BME280;39838;59.938;30.642;2023-04-26T10:54:52;99543.78;;;22.51;26.08
48926;BME280;39838;59.938;30.642;2023-04-26T10:57:21;99537.94;;;22.73;26.00
48926;BME280;39838;59.938;30.642;2023-04-26T11:00:25;99545.06;;;22.99;25.29
48926;BME280;39838;59.938;30.642;2023-04-26T11:02:54;99541.53;;;23.26;25.64
48926;BME280;39838;59.938;30.642;2023-04-26T11:05:40;99518.72;;;23.23;25.25
48926;BME280;39838;59.938;30.642;2023-04-26T11:08:14;99533.28;;;23.56;25.24
48926;BME280;39838;59.938;30.642;2023-04-26T11:10:42;99529.63;;;23.71;25.09
48926;BME280;39838;59.938;30.642;2023-04-26T11:13:11;99532.47;;;23.68;25.03
48926;BME280;39838;59.938;30.642;2023-04-26T11:15:38;99539.94;;;23.49;25.14
48926;BME280;39838;59.938;30.642;2023-04-26T11:18:05;99535.16;;;23.28;25.06
48926;BME280;39838;59.938;30.642;2023-04-26T11:20:32;99543.00;;;23.17;24.99
48926;BME280;39838;59.938;30.642;2023-04-26T11:23:00;99529.63;;;23.06;25.51
48926;BME280;39838;59.938;30.642;2023-04-26T11:25:28;99541.28;;;23.03;25.54
48926;BME280;39838;59.938;30.642;2023-04-26T11:27:59;99535.75;;;22.79;25.33
48926;BME280;39838;59.938;30.642;2023-04-26T11:30:29;99531.56;;;22.63;25.41
48926;BME280;39838;59.938;30.642;2023-04-26T11:32:57;99538.28;;;22.54;25.66
48926;BME280;39838;59.938;30.642;2023-04-26T11:35:25;99537.00;;;22.47;25.89
48926;BME280;39838;59.938;30.642;2023-04-26T11:37:57;99538.63;;;22.35;25.78
48926;BME280;39838;59.938;30.642;2023-04-26T11:40:29;99538.66;;;22.21;25.57
48926;BME280;39838;59.938;30.642;2023-04-26T11:43:00;99533.00;;;22.13;25.69
48926;BME280;39838;59.938;30.642;2023-04-26T11:45:30;99537.22;;;22.01;26.01
48926;BME280;39838;59.938;30.642;2023-04-26T11:47:59;99516.38;;;21.82;26.71
48926;BME280;39838;59.938;30.642;2023-04-26T11:50:27;99538.06;;;21.87;26.52
48926;BME280;39838;59.938;30.642;2023-04-26T11:52:55;99536.56;;;21.83;26.61
48926;BME280;39838;59.938;30.642;2023-04-26T11:55:23;99536.09;;;21.76;26.44
48926;BME280;39838;59.938;30.642;2023-04-26T11:57:52;99541.75;;;21.56;26.54
48926;BME280;39838;59.938;30.642;2023-04-26T12:00:19;99544.84;;;21.34;27.07
48926;BME280;39838;59.938;30.642;2023-04-26T12:02:49;99539.19;;;21.24;27.19
48926;BME280;39838;59.938;30.642;2023-04-26T12:05:20;99542.41;;;21.15;27.35
48926;BME280;39838;59.938;30.642;2023-04-26T12:07:51;99545.28;;;21.11;27.20
48926;BME280;39838;59.938;30.642;2023-04-26T12:10:23;99545.19;;;21.12;27.14
48926;BME280;39838;59.938;30.642;2023-04-26T12:12:51;99547.28;;;21.07;27.07
48926;BME280;39838;59.938;30.642;2023-04-26T12:15:22;99542.16;;;21.04;27.15
48926;BME280;39838;59.938;30.642;2023-04-26T12:17:58;99537.91;;;21.02;27.03
48926;BME280;39838;59.938;30.642;2023-04-26T12:20:27;99541.50;;;21.01;26.94
48926;BME280;39838;59.938;30.642;2023-04-26T12:22:59;99546.50;;;21.05;26.80
48926;BME280;39838;59.938;30.642;2023-04-26T12:25:26;99547.94;;;21.11;26.90
48926;BME280;39838;59.938;30.642;2023-04-26T12:27:54;99546.63;;;21.18;26.95
48926;BME280;39838;59.938;30.642;2023-04-26T12:30:21;99544.47;;;21.24;26.77
48926;BME280;39838;59.938;30.642;2023-04-26T12:32:48;99543.97;;;21.34;26.81
48926;BME280;39838;59.938;30.642;2023-04-26T12:35:17;99545.31;;;21.41;26.67
48926;BME280;39838;59.938;30.642;2023-04-26T12:37:44;99546.66;;;21.48;26.64
48926;BME280;39838;59.938;30.642;2023-04-26T12:40:12;99533.34;;;21.49;26.62
48926;BME280;39838;59.938;30.642;2023-04-26T12:42:40;99550.06;;;21.64;26.84
48926;BME280;39838;59.938;30.642;2023-04-26T12:45:08;99547.22;;;21.67;26.78
48926;BME280;39838;59.938;30.642;2023-04-26T12:47:35;99542.72;;;21.69;26.56
48926;BME280;39838;59.938;30.642;2023-04-26T12:50:03;99545.84;;;21.76;27.07
48926;BME280;39838;59.938;30.642;2023-04-26T12:52:32;99539.50;;;21.78;27.25
48926;BME280;39838;59.938;30.642;2023-04-26T12:54:59;99544.69;;;21.94;27.08
48926;BME280;39838;59.938;30.642;2023-04-26T12:57:26;99556.66;;;22.28;26.90
48926;BME280;39838;59.938;30.642;2023-04-26T12:59:53;99554.44;;;22.64;27.02
48926;BME280;39838;59.938;30.642;2023-04-26T13:02:21;99546.72;;;22.87;26.96